sensor_id;sensor_type;location;lat;lon;timestamp;pressure;altitude;pressure_sealevel;temperature;humidity
65718;BME280;52445;52.466;-1.016;2023-01-28T00:00:54;101751.88;;;3.78;67.46
65718;BME280;52445;52.466;-1.016;2023-01-28T00:03:21;101746.75;;;3.78;67.63
65718;BME280;52445;52.466;-1.016;2023-01-28T00:05:48;101745.88;;;3.78;67.75
65718;BME280;52445;52.466;-1.016;2023-01-28T00:08:16;101739.88;;;3.77;67.56
65718;BME280;52445;52.466;-1.016;2023-01-28T00:10:43;101742.44;;;3.77;67.26
65718;BME280;52445;52.466;-1.016;2023-01-28T00:13:11;101746.75;;;3.78;67.83
65718;BME280;52445;52.466;-1.016;2023-01-28T00:15:40;101746.75;;;3.78;67.69
65718;BME280;52445;52.466;-1.016;2023-01-28T00:18:07;101745.88;;;3.78;67.15
65718;BME280;52445;52.466;-1.016;2023-01-28T00:20:35;101744.19;;;3.78;67.24
65718;BME280;52445;52.466;-1.016;2023-01-28T00:23:02;101737.41;;;3.79;67.50
65718;BME280;52445;52.466;-1.016;2023-01-28T00:25:30;101746.84;;;3.80;67.39
65718;BME280;52445;52.466;-1.016;2023-01-28T00:27:57;101735.72;;;3.79;67.82
65718;BME280;52445;52.466;-1.016;2023-01-28T00:30:24;101734.91;;;3.80;67.44
65718;BME280;52445;52.466;-1.016;2023-01-28T00:32:53;101731.53;;;3.81;67.28
65718;BME280;52445;52.466;-1.016;2023-01-28T00:35:21;101729.78;;;3.80;67.00
65718;BME280;52445;52.466;-1.016;2023-01-28T00:37:49;101732.34;;;3.80;67.05
65718;BME280;52445;52.466;-1.016;2023-01-28T00:40:16;101726.41;;;3.81;68.21
65718;BME280;52445;52.466;-1.016;2023-01-28T00:42:43;101741.78;;;3.81;67.31
65718;BME280;52445;52.466;-1.016;2023-01-28T00:45:10;101737.47;;;3.80;67.43
65718;BME280;52445;52.466;-1.016;2023-01-28T00:47:37;101733.22;;;3.81;67.81
65718;BME280;52445;52.466;-1.016;2023-01-28T00:50:04;101724.66;;;3.80;67.65
65718;BME280;52445;52.466;-1.016;2023-01-28T00:52:31;101726.41;;;3.81;67.82
65718;BME280;52445;52.466;-1.016;2023-01-28T00:54:59;101719.53;;;3.80;67.85
65718;BME280;52445;52.466;-1.016;2023-01-28T00:57:26;101719.53;;;3.80;67.46
65718;BME280;52445;52.466;-1.016;2023-01-28T00:59:53;101712.66;;;3.79;67.49
65718;BME280;52445;52.466;-1.016;2023-01-28T01:02:20;101708.31;;;3.78;67.69
65718;BME280;52445;52.466;-1.016;2023-01-28T01:04:48;101697.28;;;3.79;68.11
65718;BME280;52445;52.466;-1.016;2023-01-28T01:07:32;101704.16;;;3.80;68.03
65718;BME280;52445;52.466;-1.016;2023-01-28T01:10:11;101695.50;;;3.78;67.92
65718;BME280;52445;52.466;-1.016;2023-01-28T01:12:38;101707.53;;;3.79;68.00
65718;BME280;52445;52.466;-1.016;2023-01-28T01:15:06;101704.97;;;3.79;67.92
65718;BME280;52445;52.466;-1.016;2023-01-28T01:17:34;101704.97;;;3.79;67.45
65718;BME280;52445;52.466;-1.016;2023-01-28T01:20:04;101688.78;;;3.80;67.80
65718;BME280;52445;52.466;-1.016;2023-01-28T01:22:33;101698.22;;;3.81;67.69
65718;BME280;52445;52.466;-1.016;2023-01-28T01:25:00;101687.16;;;3.82;67.62
65718;BME280;52445;52.466;-1.016;2023-01-28T01:27:27;101696.72;;;3.85;67.97
65718;BME280;52445;52.466;-1.016;2023-01-28T01:29:53;101697.72;;;3.89;67.40
65718;BME280;52445;52.466;-1.016;2023-01-28T01:32:20;101689.22;;;3.90;67.38
65718;BME280;52445;52.466;-1.016;2023-01-28T01:34:47;101686.75;;;3.91;67.49
65718;BME280;52445;52.466;-1.016;2023-01-28T01:37:15;101687.66;;;3.92;67.67
65718;BME280;52445;52.466;-1.016;2023-01-28T01:39:41;101686.75;;;3.91;67.47
65718;BME280;52445;52.466;-1.016;2023-01-28T01:42:11;101686.75;;;3.91;67.70
65718;BME280;52445;52.466;-1.016;2023-01-28T01:47:57;101694.19;;;3.86;67.05
65718;BME280;52445;52.466;-1.016;2023-01-28T01:50:28;101699.09;;;3.82;67.65
65718;BME280;52445;52.466;-1.016;2023-01-28T01:53:01;101702.69;;;3.85;67.35
65718;BME280;52445;52.466;-1.016;2023-01-28T01:55:32;101695.81;;;3.84;67.50
65718;BME280;52445;52.466;-1.016;2023-01-28T01:58:06;101701.84;;;3.85;67.06
65718;BME280;52445;52.466;-1.016;2023-01-28T02:00:36;101696.63;;;3.83;67.50
65718;BME280;52445;52.466;-1.016;2023-01-28T02:03:03;101702.53;;;3.82;67.37
65718;BME280;52445;52.466;-1.016;2023-01-28T02:05:30;101708.56;;;3.83;67.81
65718;BME280;52445;52.466;-1.016;2023-01-28T02:07:57;101706.88;;;3.83;67.87
65718;BME280;52445;52.466;-1.016;2023-01-28T02:10:46;101712.78;;;3.82;67.54
65718;BME280;52445;52.466;-1.016;2023-01-28T02:13:15;101713.75;;;3.84;67.99
65718;BME280;52445;52.466;-1.016;2023-01-28T02:15:43;101711.94;;;3.82;67.13
65718;BME280;52445;52.466;-1.016;2023-01-28T02:18:11;101711.94;;;3.82;67.57
65718;BME280;52445;52.466;-1.016;2023-01-28T02:29:35;101709.13;;;3.77;68.36
65718;BME280;52445;52.466;-1.016;2023-01-28T02:32:11;101708.13;;;3.75;68.00
65718;BME280;52445;52.466;-1.016;2023-01-28T02:34:44;101714.06;;;3.74;68.13
65718;BME280;52445;52.466;-1.016;2023-01-28T02:39:54;101712.25;;;3.71;68.15
65718;BME280;52445;52.466;-1.016;2023-01-28T02:42:28;101713.13;;;3.72;68.14
65718;BME280;52445;52.466;-1.016;2023-01-28T02:44:55;101716.47;;;3.71;67.71
65718;BME280;52445;52.466;-1.016;2023-01-28T02:47:22;101714.72;;;3.70;67.88
65718;BME280;52445;52.466;-1.016;2023-01-28T02:50:11;101717.28;;;3.70;67.99
65718;BME280;52445;52.466;-1.016;2023-01-28T02:55:43;101715.53;;;3.69;68.04
65718;BME280;52445;52.466;-1.016;2023-01-28T03:03:49;101710.38;;;4.02;67.02
65718;BME280;52445;52.466;-1.016;2023-01-28T03:06:23;101714.66;;;3.85;68.05
65718;BME280;52445;52.466;-1.016;2023-01-28T03:08:58;101705.75;;;3.78;68.35
65718;BME280;52445;52.466;-1.016;2023-01-28T03:11:51;101693.72;;;3.77;68.50
65718;BME280;52445;52.466;-1.016;2023-01-28T03:14:39;101693.72;;;3.77;68.57
65718;BME280;52445;52.466;-1.016;2023-01-28T03:17:34;101689.50;;;3.78;68.34
65718;BME280;52445;52.466;-1.016;2023-01-28T03:20:27;101681.91;;;3.79;69.01
65718;BME280;52445;52.466;-1.016;2023-01-28T03:23:18;101668.09;;;3.77;68.83
65718;BME280;52445;52.466;-1.016;2023-01-28T03:26:09;101686.03;;;3.77;68.71
65718;BME280;52445;52.466;-1.016;2023-01-28T03:29:03;101688.59;;;3.77;68.89
65718;BME280;52445;52.466;-1.016;2023-01-28T03:31:53;101686.03;;;3.77;68.72
65718;BME280;52445;52.466;-1.016;2023-01-28T03:34:41;101685.97;;;3.76;68.74
65718;BME280;52445;52.466;-1.016;2023-01-28T03:37:28;101685.97;;;3.76;69.08
65718;BME280;52445;52.466;-1.016;2023-01-28T03:39:55;101688.59;;;3.77;68.78
65718;BME280;52445;52.466;-1.016;2023-01-28T03:42:23;101688.59;;;3.77;69.28
65718;BME280;52445;52.466;-1.016;2023-01-28T03:44:50;101680.09;;;3.78;69.43
65718;BME280;52445;52.466;-1.016;2023-01-28T03:47:23;101685.25;;;3.78;68.73
65718;BME280;52445;52.466;-1.016;2023-01-28T03:49:52;101680.09;;;3.78;68.68
65718;BME280;52445;52.466;-1.016;2023-01-28T03:52:22;101674.97;;;3.78;69.08
65718;BME280;52445;52.466;-1.016;2023-01-28T03:54:50;101669.84;;;3.78;69.71
65718;BME280;52445;52.466;-1.016;2023-01-28T03:57:20;101668.09;;;3.77;69.63
65718;BME280;52445;52.466;-1.016;2023-01-28T03:59:47;101673.22;;;3.77;69.34
65718;BME280;52445;52.466;-1.016;2023-01-28T04:02:16;101681.72;;;3.76;69.82
65718;BME280;52445;52.466;-1.016;2023-01-28T04:04:43;101678.19;;;3.74;69.83
65718;BME280;52445;52.466;-1.016;2023-01-28T04:07:11;101679.81;;;3.72;69.64
65718;BME280;52445;52.466;-1.016;2023-01-28T04:09:40;101672.91;;;3.71;69.60
65718;BME280;52445;52.466;-1.016;2023-01-28T04:12:07;101671.22;;;3.71;69.84
65718;BME280;52445;52.466;-1.016;2023-01-28T04:14:34;101683.16;;;3.71;69.43
65718;BME280;52445;52.466;-1.016;2023-01-28T04:17:00;101685.72;;;3.71;69.40
65718;BME280;52445;52.466;-1.016;2023-01-28T04:19:27;101686.53;;;3.70;69.42
65718;BME280;52445;52.466;-1.016;2023-01-28T04:21:54;101681.41;;;3.70;69.92
65718;BME280;52445;52.466;-1.016;2023-01-28T04:24:22;101683.88;;;3.68;69.69
65718;BME280;52445;52.466;-1.016;2023-01-28T04:26:49;101695.09;;;3.70;70.15
65718;BME280;52445;52.466;-1.016;2023-01-28T04:29:15;101693.31;;;3.69;69.81
65718;BME280;52445;52.466;-1.016;2023-01-28T04:31:42;101686.53;;;3.70;70.15
65718;BME280;52445;52.466;-1.016;2023-01-28T04:34:09;101688.38;;;3.72;69.67
65718;BME280;52445;52.466;-1.016;2023-01-28T04:36:35;101684.94;;;3.72;70.25
65718;BME280;52445;52.466;-1.016;2023-01-28T04:39:02;101691.00;;;3.74;70.25
65718;BME280;52445;52.466;-1.016;2023-01-28T04:41:29;101693.56;;;3.74;70.15
65718;BME280;52445;52.466;-1.016;2023-01-28T04:43:56;101702.22;;;3.76;70.02
65718;BME280;52445;52.466;-1.016;2023-01-28T04:46:22;101698.88;;;3.77;69.80
65718;BME280;52445;52.466;-1.016;2023-01-28T04:48:49;101688.59;;;3.77;70.07
65718;BME280;52445;52.466;-1.016;2023-01-28T04:51:16;101692.16;;;3.79;70.89
65718;BME280;52445;52.466;-1.016;2023-01-28T04:53:42;101698.06;;;3.78;70.04
65718;BME280;52445;52.466;-1.016;2023-01-28T04:56:09;101696.38;;;3.79;70.33
65718;BME280;52445;52.466;-1.016;2023-01-28T04:58:36;101687.03;;;3.79;69.39
65718;BME280;52445;52.466;-1.016;2023-01-28T05:01:02;101696.47;;;3.80;70.34
65718;BME280;52445;52.466;-1.016;2023-01-28T05:03:29;101687.06;;;3.81;70.08
65718;BME280;52445;52.466;-1.016;2023-01-28T05:05:56;101683.66;;;3.80;70.71
65718;BME280;52445;52.466;-1.016;2023-01-28T05:08:22;101693.00;;;3.80;70.49
65718;BME280;52445;52.466;-1.016;2023-01-28T05:10:49;101693.91;;;3.80;70.14
65718;BME280;52445;52.466;-1.016;2023-01-28T05:13:16;101694.72;;;3.79;70.49
65718;BME280;52445;52.466;-1.016;2023-01-28T05:15:42;101692.16;;;3.79;70.33
65718;BME280;52445;52.466;-1.016;2023-01-28T05:18:09;101690.44;;;3.80;70.46
65718;BME280;52445;52.466;-1.016;2023-01-28T05:20:35;101687.88;;;3.80;70.43
65718;BME280;52445;52.466;-1.016;2023-01-28T05:23:02;101689.59;;;3.79;70.18
65718;BME280;52445;52.466;-1.016;2023-01-28T05:25:29;101690.38;;;3.78;70.58
65718;BME280;52445;52.466;-1.016;2023-01-28T05:27:55;101692.16;;;3.79;70.53
65718;BME280;52445;52.466;-1.016;2023-01-28T05:30:22;101687.03;;;3.79;70.73
65718;BME280;52445;52.466;-1.016;2023-01-28T05:32:53;101687.88;;;3.80;70.36
65718;BME280;52445;52.466;-1.016;2023-01-28T05:35:20;101687.03;;;3.79;69.79
65718;BME280;52445;52.466;-1.016;2023-01-28T05:37:47;101686.13;;;3.79;69.80
65718;BME280;52445;52.466;-1.016;2023-01-28T05:40:14;101687.03;;;3.79;70.23
65718;BME280;52445;52.466;-1.016;2023-01-28T05:42:41;101681.91;;;3.79;70.72
65718;BME280;52445;52.466;-1.016;2023-01-28T05:45:08;101697.28;;;3.79;70.23
65718;BME280;52445;52.466;-1.016;2023-01-28T05:47:35;101699.84;;;3.79;70.36
65718;BME280;52445;52.466;-1.016;2023-01-28T05:50:02;101700.63;;;3.78;69.97
65718;BME280;52445;52.466;-1.016;2023-01-28T05:52:28;101698.88;;;3.77;69.99
65718;BME280;52445;52.466;-1.016;2023-01-28T05:54:55;101697.19;;;3.78;70.27
65718;BME280;52445;52.466;-1.016;2023-01-28T05:57:22;101701.44;;;3.77;70.38
65718;BME280;52445;52.466;-1.016;2023-01-28T05:59:48;101704.00;;;3.77;70.13
65718;BME280;52445;52.466;-1.016;2023-01-28T06:02:15;101702.22;;;3.76;70.54
65718;BME280;52445;52.466;-1.016;2023-01-28T06:04:42;101700.44;;;3.75;70.21
65718;BME280;52445;52.466;-1.016;2023-01-28T06:07:08;101699.50;;;3.73;70.39
65718;BME280;52445;52.466;-1.016;2023-01-28T06:09:35;101696.94;;;3.73;70.64
65718;BME280;52445;52.466;-1.016;2023-01-28T06:12:02;101691.66;;;3.70;70.13
65718;BME280;52445;52.466;-1.016;2023-01-28T06:14:28;101691.66;;;3.70;70.78
65718;BME280;52445;52.466;-1.016;2023-01-28T06:16:55;101694.13;;;3.68;70.88
65718;BME280;52445;52.466;-1.016;2023-01-28T06:19:22;101700.16;;;3.69;70.68
65718;BME280;52445;52.466;-1.016;2023-01-28T06:21:48;101701.91;;;3.70;70.42
65718;BME280;52445;52.466;-1.016;2023-01-28T06:24:15;101703.66;;;3.71;70.30
65718;BME280;52445;52.466;-1.016;2023-01-28T06:26:42;101708.78;;;3.71;70.71
65718;BME280;52445;52.466;-1.016;2023-01-28T06:29:08;101709.59;;;3.70;70.84
65718;BME280;52445;52.466;-1.016;2023-01-28T06:31:35;101698.41;;;3.68;70.83
65718;BME280;52445;52.466;-1.016;2023-01-28T06:34:02;101699.25;;;3.68;71.13
65718;BME280;52445;52.466;-1.016;2023-01-28T06:36:28;101693.28;;;3.68;70.37
65718;BME280;52445;52.466;-1.016;2023-01-28T06:38:55;101695.03;;;3.69;71.04
65718;BME280;52445;52.466;-1.016;2023-01-28T06:41:21;101696.78;;;3.70;70.52
65718;BME280;52445;52.466;-1.016;2023-01-28T06:43:48;101695.03;;;3.69;70.47
65718;BME280;52445;52.466;-1.016;2023-01-28T06:46:15;101693.28;;;3.68;70.51
65718;BME280;52445;52.466;-1.016;2023-01-28T06:48:42;101690.72;;;3.68;71.21
65718;BME280;52445;52.466;-1.016;2023-01-28T06:51:08;101698.41;;;3.68;70.67
65718;BME280;52445;52.466;-1.016;2023-01-28T06:53:35;101698.41;;;3.68;71.16
65718;BME280;52445;52.466;-1.016;2023-01-28T06:56:02;101695.03;;;3.69;70.30
65718;BME280;52445;52.466;-1.016;2023-01-28T06:58:28;101695.03;;;3.69;70.90
65718;BME280;52445;52.466;-1.016;2023-01-28T07:00:55;101693.28;;;3.68;70.69
65718;BME280;52445;52.466;-1.016;2023-01-28T07:03:22;101691.50;;;3.67;70.55
65718;BME280;52445;52.466;-1.016;2023-01-28T07:05:48;101695.84;;;3.68;70.95
65718;BME280;52445;52.466;-1.016;2023-01-28T07:08:15;101707.03;;;3.70;70.18
65718;BME280;52445;52.466;-1.016;2023-01-28T07:10:42;101696.78;;;3.70;70.98
65718;BME280;52445;52.466;-1.016;2023-01-28T07:13:10;101694.22;;;3.70;70.55
65718;BME280;52445;52.466;-1.016;2023-01-28T07:15:37;101697.75;;;3.72;70.90
65718;BME280;52445;52.466;-1.016;2023-01-28T07:18:03;101703.66;;;3.71;70.46
65718;BME280;52445;52.466;-1.016;2023-01-28T07:20:30;101704.47;;;3.70;70.96
65718;BME280;52445;52.466;-1.016;2023-01-28T07:22:57;101711.34;;;3.71;70.91
65718;BME280;52445;52.466;-1.016;2023-01-28T07:25:24;101706.13;;;3.69;71.21
65718;BME280;52445;52.466;-1.016;2023-01-28T07:27:52;101709.69;;;3.71;70.94
65718;BME280;52445;52.466;-1.016;2023-01-28T07:30:19;101706.22;;;3.71;70.97
65718;BME280;52445;52.466;-1.016;2023-01-28T07:32:46;101703.66;;;3.71;71.12
65718;BME280;52445;52.466;-1.016;2023-01-28T07:35:13;101699.34;;;3.70;70.86
65718;BME280;52445;52.466;-1.016;2023-01-28T07:37:39;101694.22;;;3.70;70.70
65718;BME280;52445;52.466;-1.016;2023-01-28T07:40:07;101692.53;;;3.70;70.94
65718;BME280;52445;52.466;-1.016;2023-01-28T07:42:34;101693.28;;;3.68;70.62
65718;BME280;52445;52.466;-1.016;2023-01-28T07:45:01;101691.50;;;3.67;70.98
65718;BME280;52445;52.466;-1.016;2023-01-28T07:47:28;101701.00;;;3.69;70.73
65718;BME280;52445;52.466;-1.016;2023-01-28T07:49:54;101705.28;;;3.69;70.65
65718;BME280;52445;52.466;-1.016;2023-01-28T07:52:21;101706.09;;;3.68;70.58
65718;BME280;52445;52.466;-1.016;2023-01-28T07:54:48;101707.84;;;3.69;70.51
65718;BME280;52445;52.466;-1.016;2023-01-28T07:57:14;101712.97;;;3.69;70.41
65718;BME280;52445;52.466;-1.016;2023-01-28T07:59:49;101709.69;;;3.71;70.48
65718;BME280;52445;52.466;-1.016;2023-01-28T08:02:16;101716.56;;;3.72;70.86
65718;BME280;52445;52.466;-1.016;2023-01-28T08:04:44;101712.31;;;3.73;70.96
65718;BME280;52445;52.466;-1.016;2023-01-28T08:07:11;101703.81;;;3.74;70.49
65718;BME280;52445;52.466;-1.016;2023-01-28T08:09:38;101708.09;;;3.73;70.81
65718;BME280;52445;52.466;-1.016;2023-01-28T08:12:05;101717.63;;;3.76;70.29
65718;BME280;52445;52.466;-1.016;2023-01-28T08:14:31;101717.63;;;3.76;70.36
65718;BME280;52445;52.466;-1.016;2023-01-28T08:16:58;101724.50;;;3.77;71.03
65718;BME280;52445;52.466;-1.016;2023-01-28T08:19:25;101729.63;;;3.77;70.43
65718;BME280;52445;52.466;-1.016;2023-01-28T08:21:52;101744.19;;;3.78;70.82
65718;BME280;52445;52.466;-1.016;2023-01-28T08:24:18;101755.25;;;3.77;71.15
65718;BME280;52445;52.466;-1.016;2023-01-28T08:26:47;101760.53;;;3.80;70.49
65718;BME280;52445;52.466;-1.016;2023-01-28T08:29:13;101749.41;;;3.80;70.44
65718;BME280;52445;52.466;-1.016;2023-01-28T08:31:40;101734.91;;;3.80;71.43
65718;BME280;52445;52.466;-1.016;2023-01-28T08:34:07;101726.41;;;3.81;71.07
65718;BME280;52445;52.466;-1.016;2023-01-28T08:36:33;101733.28;;;3.82;70.67
65718;BME280;52445;52.466;-1.016;2023-01-28T08:39:00;101740.28;;;3.85;70.60
65718;BME280;52445;52.466;-1.016;2023-01-28T08:41:28;101742.13;;;3.88;70.69
65718;BME280;52445;52.466;-1.016;2023-01-28T08:43:55;101750.75;;;3.90;71.18
65718;BME280;52445;52.466;-1.016;2023-01-28T08:46:22;101750.75;;;3.90;71.00
65718;BME280;52445;52.466;-1.016;2023-01-28T08:48:49;101747.38;;;3.91;71.04
65718;BME280;52445;52.466;-1.016;2023-01-28T08:51:16;101755.16;;;3.92;70.80
65718;BME280;52445;52.466;-1.016;2023-01-28T08:53:43;101739.84;;;3.94;70.61
65718;BME280;52445;52.466;-1.016;2023-01-28T08:56:10;101744.22;;;3.95;71.08
65718;BME280;52445;52.466;-1.016;2023-01-28T08:58:38;101754.59;;;3.98;70.32
65718;BME280;52445;52.466;-1.016;2023-01-28T09:01:05;101751.25;;;3.99;70.79
65718;BME280;52445;52.466;-1.016;2023-01-28T09:03:32;101741.94;;;4.01;71.13
65718;BME280;52445;52.466;-1.016;2023-01-28T09:06:01;101737.78;;;4.03;70.68
65718;BME280;52445;52.466;-1.016;2023-01-28T09:08:27;101736.16;;;4.05;70.92
65718;BME280;52445;52.466;-1.016;2023-01-28T09:10:55;101719.19;;;4.07;70.79
65718;BME280;52445;52.466;-1.016;2023-01-28T09:13:22;101721.09;;;4.11;70.53
65718;BME280;52445;52.466;-1.016;2023-01-28T09:15:50;101715.16;;;4.13;70.67
65718;BME280;52445;52.466;-1.016;2023-01-28T09:18:17;101723.03;;;4.16;70.74
65718;BME280;52445;52.466;-1.016;2023-01-28T09:20:45;101719.81;;;4.20;70.55
65718;BME280;52445;52.466;-1.016;2023-01-28T09:23:12;101716.59;;;4.24;70.61
65718;BME280;52445;52.466;-1.016;2023-01-28T09:25:39;101712.47;;;4.28;70.83
65718;BME280;52445;52.466;-1.016;2023-01-28T09:28:06;101715.28;;;4.32;71.10
65718;BME280;52445;52.466;-1.016;2023-01-28T09:30:33;101710.31;;;4.35;70.89
65718;BME280;52445;52.466;-1.016;2023-01-28T09:33:03;101705.41;;;4.40;70.90
65718;BME280;52445;52.466;-1.016;2023-01-28T09:35:32;101709.00;;;4.44;70.66
65718;BME280;52445;52.466;-1.016;2023-01-28T09:37:59;101710.91;;;4.48;70.84
65718;BME280;52445;52.466;-1.016;2023-01-28T09:40:33;101704.19;;;4.50;69.87
65718;BME280;52445;52.466;-1.016;2023-01-28T09:43:30;101708.66;;;4.54;70.80
65718;BME280;52445;52.466;-1.016;2023-01-28T09:45:57;101708.94;;;4.60;71.08
65718;BME280;52445;52.466;-1.016;2023-01-28T09:48:29;101701.41;;;4.63;71.33
65718;BME280;52445;52.466;-1.016;2023-01-28T09:51:00;101704.19;;;4.68;70.83
65718;BME280;52445;52.466;-1.016;2023-01-28T09:53:30;101706.25;;;4.75;71.03
65718;BME280;52445;52.466;-1.016;2023-01-28T09:58:34;101698.91;;;4.83;70.83
65718;BME280;52445;52.466;-1.016;2023-01-28T10:01:27;101690.53;;;4.87;71.05
65718;BME280;52445;52.466;-1.016;2023-01-28T10:07:04;101694.38;;;4.96;71.49
65718;BME280;52445;52.466;-1.016;2023-01-28T10:10:00;101683.47;;;5.01;71.01
65718;BME280;52445;52.466;-1.016;2023-01-28T10:12:40;101694.94;;;5.08;70.82
65718;BME280;52445;52.466;-1.016;2023-01-28T10:18:09;101702.38;;;5.22;71.54
65718;BME280;52445;52.466;-1.016;2023-01-28T10:20:48;101695.78;;;5.27;71.66
65718;BME280;52445;52.466;-1.016;2023-01-28T10:23:23;101697.69;;;5.31;71.19
65718;BME280;52445;52.466;-1.016;2023-01-28T10:25:52;101699.59;;;5.35;71.37
65718;BME280;52445;52.466;-1.016;2023-01-28T10:28:27;101697.94;;;5.37;71.38
65718;BME280;52445;52.466;-1.016;2023-01-28T10:30:53;101692.06;;;5.40;71.42
65718;BME280;52445;52.466;-1.016;2023-01-28T10:36:03;101690.00;;;5.51;70.46
65718;BME280;52445;52.466;-1.016;2023-01-28T10:38:30;101699.59;;;5.55;70.44
65718;BME280;52445;52.466;-1.016;2023-01-28T10:41:00;101697.97;;;5.57;71.55
65718;BME280;52445;52.466;-1.016;2023-01-28T10:43:33;101698.94;;;5.59;71.70
65718;BME280;52445;52.466;-1.016;2023-01-28T10:51:39;101707.56;;;5.61;71.52
65718;BME280;52445;52.466;-1.016;2023-01-28T10:54:25;101711.91;;;5.62;71.03
65718;BME280;52445;52.466;-1.016;2023-01-28T10:56:57;101713.00;;;5.68;71.17
65718;BME280;52445;52.466;-1.016;2023-01-28T10:59:27;101707.25;;;5.73;72.01
65718;BME280;52445;52.466;-1.016;2023-01-28T11:01:57;101710.03;;;5.78;71.61
65718;BME280;52445;52.466;-1.016;2023-01-28T11:07:18;101716.25;;;5.83;70.83
65718;BME280;52445;52.466;-1.016;2023-01-28T11:09:49;101725.78;;;5.86;71.67
65718;BME280;52445;52.466;-1.016;2023-01-28T11:12:26;101715.56;;;5.87;70.66
65718;BME280;52445;52.466;-1.016;2023-01-28T11:14:55;101711.16;;;5.85;70.69
65718;BME280;52445;52.466;-1.016;2023-01-28T11:17:26;101701.78;;;5.85;72.11
65718;BME280;52445;52.466;-1.016;2023-01-28T11:19:57;101703.53;;;5.86;71.91
65718;BME280;52445;52.466;-1.016;2023-01-28T11:22:34;101701.50;;;5.79;71.94
65718;BME280;52445;52.466;-1.016;2023-01-28T11:25:05;101713.81;;;5.86;72.36
65718;BME280;52445;52.466;-1.016;2023-01-28T11:27:39;101712.16;;;5.88;71.72
65718;BME280;52445;52.466;-1.016;2023-01-28T11:35:54;101713.38;;;5.77;72.17
65718;BME280;52445;52.466;-1.016;2023-01-28T11:38:24;101716.63;;;5.73;71.25
65718;BME280;52445;52.466;-1.016;2023-01-28T11:40:54;101721.38;;;5.63;72.15
65718;BME280;52445;52.466;-1.016;2023-01-28T11:43:23;101719.50;;;5.59;71.55
65718;BME280;52445;52.466;-1.016;2023-01-28T11:51:52;101711.78;;;5.59;72.54
65718;BME280;52445;52.466;-1.016;2023-01-28T11:59:58;101715.41;;;5.64;72.93
65718;BME280;52445;52.466;-1.016;2023-01-28T12:10:51;101715.56;;;5.87;72.89
65718;BME280;52445;52.466;-1.016;2023-01-28T12:13:31;101711.63;;;5.96;72.87
65718;BME280;52445;52.466;-1.016;2023-01-28T12:21:51;101713.00;;;6.07;72.75
65718;BME280;52445;52.466;-1.016;2023-01-28T12:38:06;101675.06;;;6.23;73.12
65718;BME280;52445;52.466;-1.016;2023-01-28T12:45:54;101664.53;;;6.38;72.60
65718;BME280;52445;52.466;-1.016;2023-01-28T12:48:28;101657.72;;;6.40;72.03
65718;BME280;52445;52.466;-1.016;2023-01-28T12:51:02;101655.22;;;6.41;72.55
65718;BME280;52445;52.466;-1.016;2023-01-28T12:56:18;101645.97;;;6.47;72.53
65718;BME280;52445;52.466;-1.016;2023-01-28T13:01:38;101647.84;;;6.51;71.94
65718;BME280;52445;52.466;-1.016;2023-01-28T13:04:24;101644.50;;;6.52;71.88
65718;BME280;52445;52.466;-1.016;2023-01-28T13:07:13;101634.06;;;6.49;71.98
65718;BME280;52445;52.466;-1.016;2023-01-28T13:09:48;101641.91;;;6.52;71.57
65718;BME280;52445;52.466;-1.016;2023-01-28T13:12:17;101648.56;;;6.47;71.61
65718;BME280;52445;52.466;-1.016;2023-01-28T13:14:45;101634.34;;;6.56;72.59
65718;BME280;52445;52.466;-1.016;2023-01-28T13:17:33;101632.66;;;6.57;72.40
65718;BME280;52445;52.466;-1.016;2023-01-28T13:20:00;101629.38;;;6.61;71.43
65718;BME280;52445;52.466;-1.016;2023-01-28T13:25:23;101621.16;;;6.70;71.92
65718;BME280;52445;52.466;-1.016;2023-01-28T13:27:54;101622.31;;;6.78;73.04
65718;BME280;52445;52.466;-1.016;2023-01-28T13:30:26;101620.78;;;6.84;72.28
65718;BME280;52445;52.466;-1.016;2023-01-28T13:33:00;101623.53;;;6.88;70.90
65718;BME280;52445;52.466;-1.016;2023-01-28T13:35:36;101618.41;;;6.88;71.51
65718;BME280;52445;52.466;-1.016;2023-01-28T13:38:20;101628.81;;;6.91;71.92
65718;BME280;52445;52.466;-1.016;2023-01-28T13:40:54;101628.94;;;6.94;71.51
65718;BME280;52445;52.466;-1.016;2023-01-28T13:43:27;101628.25;;;6.99;71.47
65718;BME280;52445;52.466;-1.016;2023-01-28T13:45:56;101631.59;;;6.98;71.23
65718;BME280;52445;52.466;-1.016;2023-01-28T13:48:31;101619.56;;;6.97;71.58
65718;BME280;52445;52.466;-1.016;2023-01-28T13:50:59;101613.56;;;6.98;71.86
65718;BME280;52445;52.466;-1.016;2023-01-28T13:56:19;101620.59;;;7.02;71.64
65718;BME280;52445;52.466;-1.016;2023-01-28T14:04:53;101625.88;;;7.05;71.24
65718;BME280;52445;52.466;-1.016;2023-01-28T14:18:34;101633.78;;;7.10;70.53
65718;BME280;52445;52.466;-1.016;2023-01-28T14:21:10;101640.75;;;7.12;72.11
65718;BME280;52445;52.466;-1.016;2023-01-28T14:23:43;101644.84;;;7.07;71.44
65718;BME280;52445;52.466;-1.016;2023-01-28T14:32:07;101650.13;;;7.10;70.54
65718;BME280;52445;52.466;-1.016;2023-01-28T14:34:37;101648.34;;;7.09;70.22
65718;BME280;52445;52.466;-1.016;2023-01-28T14:37:07;101645.06;;;7.13;71.81
65718;BME280;52445;52.466;-1.016;2023-01-28T14:39:56;101636.41;;;7.11;71.93
65718;BME280;52445;52.466;-1.016;2023-01-28T14:42:26;101630.69;;;7.18;70.64
65718;BME280;52445;52.466;-1.016;2023-01-28T14:58:47;101631.81;;;7.27;70.57
65718;BME280;52445;52.466;-1.016;2023-01-28T15:01:20;101630.09;;;7.26;70.37
65718;BME280;52445;52.466;-1.016;2023-01-28T15:03:48;101628.31;;;7.25;70.45
65718;BME280;52445;52.466;-1.016;2023-01-28T15:06:18;101637.81;;;7.26;70.78
65718;BME280;52445;52.466;-1.016;2023-01-28T15:08:47;101639.50;;;7.25;71.79
65718;BME280;52445;52.466;-1.016;2023-01-28T15:11:16;101639.56;;;7.27;71.04
65718;BME280;52445;52.466;-1.016;2023-01-28T15:13:47;101642.97;;;7.26;70.32
65718;BME280;52445;52.466;-1.016;2023-01-28T15:16:18;101638.59;;;7.25;71.32
65718;BME280;52445;52.466;-1.016;2023-01-28T15:18:47;101640.28;;;7.23;71.53
65718;BME280;52445;52.466;-1.016;2023-01-28T15:21:18;101647.06;;;7.20;71.07
65718;BME280;52445;52.466;-1.016;2023-01-28T15:23:47;101637.56;;;7.19;70.41
65718;BME280;52445;52.466;-1.016;2023-01-28T15:26:19;101642.78;;;7.21;70.43